createdAt,value
2022-11-14T00:00:05.346Z,81.33
2022-11-14T00:01:05.906Z,81.26
2022-11-14T00:02:06.485Z,81.16
2022-11-14T00:03:07.093Z,81.06
2022-11-14T00:04:07.712Z,80.96
2022-11-14T00:05:08.263Z,80.76
2022-11-14T00:06:08.815Z,80.55
2022-11-14T00:07:09.492Z,80.15
2022-11-14T00:08:10.063Z,79.63
2022-11-14T00:09:10.620Z,79.13
2022-11-14T00:10:11.175Z,78.89
2022-11-14T00:11:11.741Z,78.89
2022-11-14T00:12:12.549Z,79.09
2022-11-14T00:13:13.106Z,79.39
2022-11-14T00:14:13.670Z,79.70
2022-11-14T00:15:14.232Z,80.00
2022-11-14T00:16:14.792Z,80.31
2022-11-14T00:17:15.383Z,80.55
2022-11-14T00:18:15.938Z,80.65
2022-11-14T00:19:16.505Z,80.76
2022-11-14T00:20:17.056Z,80.85
2022-11-14T00:21:17.632Z,81.06
2022-11-14T00:22:18.227Z,81.26
2022-11-14T00:23:18.785Z,81.46
2022-11-14T00:24:19.346Z,81.57
2022-11-14T00:25:19.917Z,81.71
2022-11-14T00:26:20.475Z,81.91
2022-11-14T00:27:21.253Z,82.21
2022-11-14T00:28:21.804Z,82.32
2022-11-14T00:29:22.350Z,82.42
2022-11-14T00:30:22.912Z,82.52
2022-11-14T00:31:23.462Z,82.52
2022-11-14T00:32:24.057Z,82.66
2022-11-14T00:33:24.620Z,82.56
2022-11-14T00:34:25.176Z,82.66
2022-11-14T00:35:25.738Z,82.56
2022-11-14T00:36:26.299Z,82.56
2022-11-14T00:37:26.937Z,82.56
2022-11-14T00:38:27.871Z,82.46
2022-11-14T00:39:28.134Z,82.42
2022-11-14T00:40:28.693Z,82.56
2022-11-14T00:41:29.243Z,82.66
2022-11-14T00:42:29.955Z,82.87
2022-11-14T00:43:30.515Z,82.97
2022-11-14T00:44:31.090Z,83.17
2022-11-14T00:45:31.660Z,83.27
2022-11-14T00:46:32.219Z,83.48
2022-11-14T00:47:32.818Z,83.68
2022-11-14T00:48:33.378Z,83.78
2022-11-14T00:49:33.940Z,83.98
2022-11-14T00:50:34.494Z,84.09
2022-11-14T00:51:35.055Z,84.09
2022-11-14T00:52:35.646Z,84.19
2022-11-14T00:53:36.204Z,84.23
2022-11-14T00:54:36.771Z,84.33
2022-11-14T00:55:37.329Z,84.43
2022-11-14T00:56:37.910Z,84.53
2022-11-14T00:57:38.696Z,84.64
2022-11-14T00:58:39.244Z,84.74
2022-11-14T00:59:39.807Z,84.74
2022-11-14T01:00:40.436Z,84.84
2022-11-14T01:01:41.025Z,84.84
2022-11-14T01:02:41.650Z,84.84
2022-11-14T01:03:42.217Z,84.84
2022-11-14T01:04:42.777Z,84.74
2022-11-14T01:05:43.346Z,84.74
2022-11-14T01:06:43.893Z,84.59
2022-11-14T01:07:44.501Z,84.59
2022-11-14T01:08:45.140Z,84.50
2022-11-14T01:09:45.761Z,84.59
2022-11-14T01:10:46.316Z,84.59
2022-11-14T01:11:46.861Z,84.74
2022-11-14T01:12:47.620Z,84.94
2022-11-14T01:13:48.178Z,85.05
2022-11-14T01:14:48.740Z,85.14
2022-11-14T01:15:49.297Z,85.25
2022-11-14T01:16:49.863Z,85.25
2022-11-14T01:17:50.453Z,85.14
2022-11-14T01:18:51.018Z,84.90
2022-11-14T01:19:51.644Z,84.70
2022-11-14T01:20:52.228Z,84.59
2022-11-14T01:21:52.803Z,84.59
2022-11-14T01:22:53.393Z,84.59
2022-11-14T01:23:53.947Z,84.70
2022-11-14T01:24:54.504Z,84.84
2022-11-14T01:25:55.080Z,85.05
2022-11-14T01:26:55.651Z,85.25
2022-11-14T01:27:56.431Z,85.35
2022-11-14T01:28:56.984Z,85.55
2022-11-14T01:29:57.547Z,85.75
2022-11-14T01:30:58.104Z,85.86
2022-11-14T01:31:58.677Z,86.06
2022-11-14T01:32:59.303Z,86.16
2022-11-14T01:33:59.862Z,86.27
2022-11-14T01:35:00.427Z,86.27
2022-11-14T01:36:00.984Z,86.47
2022-11-14T01:37:01.541Z,86.47
2022-11-14T01:38:02.345Z,86.57
2022-11-14T01:39:02.904Z,86.57
2022-11-14T01:40:03.472Z,86.57
2022-11-14T01:41:04.037Z,86.68
2022-11-14T01:42:04.598Z,86.57
2022-11-14T01:43:05.314Z,86.47
2022-11-14T01:44:05.879Z,86.37
2022-11-14T01:45:06.437Z,86.27
2022-11-14T01:46:06.998Z,86.16
2022-11-14T01:47:07.575Z,86.16
2022-11-14T01:48:08.158Z,86.06
2022-11-14T01:49:08.713Z,85.96
2022-11-14T01:50:09.278Z,85.96
2022-11-14T01:51:09.834Z,85.86
2022-11-14T01:52:10.387Z,85.96
2022-11-14T01:53:10.976Z,85.96
2022-11-14T01:54:11.533Z,86.06
2022-11-14T01:55:12.100Z,86.16
2022-11-14T01:56:12.667Z,86.27
2022-11-14T01:57:13.225Z,86.37
2022-11-14T01:58:14.021Z,86.47
2022-11-14T01:59:14.580Z,86.47
2022-11-14T02:00:15.142Z,86.47
2022-11-14T02:01:15.797Z,86.47
2022-11-14T02:02:16.391Z,86.57
2022-11-14T02:03:17.085Z,86.68
2022-11-14T02:04:17.638Z,86.82
2022-11-14T02:05:18.198Z,87.02
2022-11-14T02:06:19.079Z,87.23
2022-11-14T02:07:19.703Z,87.43
2022-11-14T02:08:20.318Z,87.63
2022-11-14T02:09:20.898Z,87.84
2022-11-14T02:10:21.458Z,88.14
2022-11-14T02:11:22.033Z,88.34
2022-11-14T02:12:22.594Z,88.55
2022-11-14T02:13:23.374Z,88.75
2022-11-14T02:14:23.930Z,88.85
2022-11-14T02:15:24.485Z,88.96
2022-11-14T02:16:25.047Z,88.96
2022-11-14T02:17:30.387Z,89.00
2022-11-14T02:18:26.729Z,89.00
2022-11-14T02:19:27.400Z,88.90
2022-11-14T02:20:27.958Z,88.85
2022-11-14T02:21:28.518Z,88.75
2022-11-14T02:22:29.074Z,88.75
2022-11-14T02:23:29.679Z,88.65
2022-11-14T02:24:30.263Z,88.55
2022-11-14T02:25:30.820Z,88.45
2022-11-14T02:26:36.527Z,88.20
2022-11-14T02:27:32.283Z,88.00
2022-11-14T02:28:33.064Z,87.59
2022-11-14T02:29:33.611Z,87.04
2022-11-14T02:30:34.169Z,86.22
2022-11-14T02:31:34.735Z,85.41
2022-11-14T02:32:57.062Z,84.70
2022-11-14T02:33:36.288Z,83.89
2022-11-14T02:34:36.853Z,83.07
2022-11-14T02:35:37.415Z,82.12
2022-11-14T02:36:38.000Z,81.60
2022-11-14T02:37:38.558Z,81.20
2022-11-14T02:38:39.216Z,80.99
2022-11-14T02:39:39.779Z,80.76
2022-11-14T02:40:40.334Z,80.45
2022-11-14T02:41:40.903Z,80.04
2022-11-14T02:42:41.465Z,79.63
2022-11-14T02:43:42.283Z,79.23
2022-11-14T02:44:42.862Z,78.72
2022-11-14T02:45:43.426Z,78.31
2022-11-14T02:46:43.986Z,77.70
2022-11-14T02:47:44.544Z,77.20
2022-11-14T02:48:45.137Z,76.55
2022-11-14T02:49:45.697Z,76.14
2022-11-14T02:50:46.264Z,75.94
2022-11-14T02:51:46.827Z,75.73
2022-11-14T02:52:47.383Z,75.63
2022-11-14T02:53:48.063Z,75.63
2022-11-14T02:54:54.123Z,75.60
2022-11-14T02:55:49.529Z,76.01
2022-11-14T02:56:50.078Z,76.31
2022-11-14T02:57:50.646Z,76.31
2022-11-14T02:58:51.428Z,76.31
2022-11-14T02:59:51.994Z,76.21
2022-11-14T03:01:19.198Z,76.10
2022-11-14T03:01:53.538Z,76.10
2022-11-14T03:02:54.131Z,76.25
2022-11-14T03:03:54.783Z,76.55
2022-11-14T03:04:55.545Z,76.95
2022-11-14T03:05:56.093Z,77.36
2022-11-14T03:06:56.736Z,77.70
2022-11-14T03:07:57.328Z,77.91
2022-11-14T03:08:57.914Z,78.11
2022-11-14T03:09:58.467Z,78.21
2022-11-14T03:10:59.024Z,78.21
2022-11-14T03:11:59.583Z,78.11
2022-11-14T03:13:00.137Z,78.01
2022-11-14T03:14:00.987Z,77.91
2022-11-14T03:15:01.557Z,77.81
2022-11-14T03:16:02.103Z,77.60
2022-11-14T03:17:02.671Z,77.29
2022-11-14T03:18:03.226Z,76.89
2022-11-14T03:19:03.808Z,76.45
2022-11-14T03:20:04.363Z,76.25
2022-11-14T03:21:04.926Z,76.34
2022-11-14T03:22:05.482Z,76.55
2022-11-14T03:23:06.034Z,76.68
2022-11-14T03:24:06.647Z,76.79
2022-11-14T03:25:07.201Z,76.79
2022-11-14T03:26:07.769Z,77.09
2022-11-14T03:27:08.331Z,77.29
2022-11-14T03:28:08.887Z,77.60
2022-11-14T03:29:09.660Z,77.94
2022-11-14T03:30:10.211Z,78.15
2022-11-14T03:31:10.770Z,78.35
2022-11-14T03:32:11.334Z,78.66
2022-11-14T03:33:11.902Z,78.76
2022-11-14T03:34:12.532Z,78.86
2022-11-14T03:35:13.092Z,79.00
2022-11-14T03:36:13.646Z,78.96
2022-11-14T03:37:14.199Z,79.00
2022-11-14T03:38:14.748Z,79.00
2022-11-14T03:39:15.392Z,79.00
2022-11-14T03:40:15.975Z,79.20
2022-11-14T03:41:16.550Z,79.41
2022-11-14T03:42:17.111Z,79.61
2022-11-14T03:43:17.668Z,79.71
2022-11-14T03:44:18.579Z,79.81
2022-11-14T03:45:19.135Z,79.71
2022-11-14T03:46:19.705Z,79.81
2022-11-14T03:47:20.268Z,79.91
2022-11-14T03:48:20.836Z,80.05
2022-11-14T03:49:21.453Z,80.36
2022-11-14T03:50:22.013Z,80.56
2022-11-14T03:51:22.577Z,80.87
2022-11-14T03:52:23.141Z,81.07
2022-11-14T03:53:23.706Z,81.27
2022-11-14T03:54:24.304Z,81.38
2022-11-14T03:55:24.862Z,81.58
2022-11-14T03:56:25.419Z,81.68
2022-11-14T03:57:25.993Z,81.79
2022-11-14T03:58:26.624Z,81.88
2022-11-14T03:59:27.592Z,81.88
2022-11-14T04:00:28.193Z,81.99
2022-11-14T04:01:28.796Z,82.13
2022-11-14T04:02:29.361Z,82.23
2022-11-14T04:03:29.920Z,82.33
2022-11-14T04:04:30.545Z,82.43
2022-11-14T04:05:31.107Z,82.54
2022-11-14T04:06:31.670Z,82.64
2022-11-14T04:07:32.280Z,82.74
2022-11-14T04:08:33.288Z,82.94
2022-11-14T04:09:33.626Z,83.15
2022-11-14T04:10:34.174Z,83.35
2022-11-14T04:11:34.735Z,83.45
2022-11-14T04:12:35.312Z,83.56
2022-11-14T04:13:35.874Z,83.80
2022-11-14T04:14:36.647Z,83.90
2022-11-14T04:15:37.209Z,84.00
2022-11-14T04:16:37.775Z,84.11
2022-11-14T04:17:39.983Z,84.31
2022-11-14T04:18:39.241Z,84.41
2022-11-14T04:19:39.924Z,84.51
2022-11-14T04:20:40.497Z,84.61
2022-11-14T04:21:41.065Z,84.72
2022-11-14T04:22:41.625Z,84.75
2022-11-14T04:23:42.184Z,84.75
2022-11-14T04:24:42.773Z,84.86
2022-11-14T04:25:43.337Z,84.86
2022-11-14T04:26:43.908Z,84.96
2022-11-14T04:27:44.474Z,84.96
2022-11-14T04:28:45.042Z,84.96
2022-11-14T04:29:45.817Z,84.96
2022-11-14T04:30:46.328Z,85.06
2022-11-14T04:31:46.886Z,85.06
2022-11-14T04:32:47.444Z,85.06
2022-11-14T04:33:48.013Z,84.96
2022-11-14T04:34:48.656Z,84.96
2022-11-14T04:35:49.216Z,84.96
2022-11-14T04:36:49.730Z,84.86
2022-11-14T04:37:50.232Z,84.75
2022-11-14T04:38:50.737Z,84.75
2022-11-14T04:39:51.366Z,84.66
2022-11-14T04:40:51.868Z,84.75
2022-11-14T04:41:52.374Z,84.75
2022-11-14T04:42:52.881Z,84.66
2022-11-14T04:43:53.387Z,84.75
2022-11-14T04:44:54.075Z,84.75
2022-11-14T04:45:54.592Z,84.75
2022-11-14T04:46:55.095Z,84.75
2022-11-14T04:47:55.598Z,84.75
2022-11-14T04:48:56.100Z,84.75
2022-11-14T04:49:56.629Z,84.75
2022-11-14T04:50:57.138Z,84.72
2022-11-14T04:51:57.681Z,84.51
2022-11-14T04:52:58.190Z,84.51
2022-11-14T04:53:58.701Z,84.51
2022-11-14T04:54:59.368Z,84.51
2022-11-14T04:55:59.884Z,84.41
2022-11-14T04:57:00.560Z,84.41
2022-11-14T04:58:01.064Z,84.31
2022-11-14T04:59:01.571Z,84.31
2022-11-14T05:00:02.185Z,84.41
2022-11-14T05:01:02.784Z,84.41
2022-11-14T05:02:03.293Z,84.41
2022-11-14T05:03:03.796Z,84.51
2022-11-14T05:04:04.296Z,84.61
2022-11-14T05:05:04.874Z,84.72
2022-11-14T05:06:05.382Z,84.82
2022-11-14T05:07:05.968Z,84.92
2022-11-14T05:08:06.553Z,85.02
2022-11-14T05:09:07.057Z,85.13
2022-11-14T05:10:07.591Z,85.13
2022-11-14T05:11:08.105Z,85.22
2022-11-14T05:12:08.606Z,85.13
2022-11-14T05:13:09.112Z,85.13
2022-11-14T05:14:09.619Z,85.13
2022-11-14T05:15:10.222Z,85.13
2022-11-14T05:16:10.749Z,85.02
2022-11-14T05:17:11.258Z,84.92
2022-11-14T05:18:11.766Z,85.02
2022-11-14T05:19:12.277Z,85.02
2022-11-14T05:20:12.811Z,84.92
2022-11-14T05:21:13.310Z,84.82
2022-11-14T05:22:20.710Z,84.82
2022-11-14T05:23:14.699Z,84.92
2022-11-14T05:24:15.200Z,84.92
2022-11-14T05:25:15.741Z,84.88
2022-11-14T05:26:16.258Z,84.88
2022-11-14T05:27:18.470Z,84.88
2022-11-14T05:28:17.475Z,84.78
2022-11-14T05:29:17.979Z,84.78
2022-11-14T05:30:18.600Z,84.78
2022-11-14T05:31:19.146Z,84.78
2022-11-14T05:32:19.650Z,84.74
2022-11-14T05:33:20.164Z,84.64
2022-11-14T05:34:20.670Z,84.53
2022-11-14T05:35:21.214Z,84.53
2022-11-14T05:36:21.712Z,84.53
2022-11-14T05:37:22.210Z,84.43
2022-11-14T05:38:22.721Z,84.33
2022-11-14T05:39:23.217Z,84.33
2022-11-14T05:40:23.843Z,84.23
2022-11-14T05:41:24.365Z,84.23
2022-11-14T05:42:24.870Z,84.19
2022-11-14T05:43:25.373Z,83.98
2022-11-14T05:44:27.700Z,83.89
2022-11-14T05:45:26.737Z,83.78
2022-11-14T05:46:27.277Z,83.68
2022-11-14T05:47:27.796Z,83.68
2022-11-14T05:48:28.669Z,83.48
2022-11-14T05:49:28.938Z,83.37
2022-11-14T05:50:39.631Z,83.27
2022-11-14T05:51:30.227Z,83.23
2022-11-14T05:52:30.729Z,83.13
2022-11-14T05:53:31.246Z,83.13
2022-11-14T05:54:31.785Z,83.03
2022-11-14T05:55:32.404Z,82.93
2022-11-14T05:56:34.156Z,82.68
2022-11-14T05:57:34.181Z,82.59
2022-11-14T05:58:34.815Z,82.38
2022-11-14T05:59:36.208Z,82.18
2022-11-14T06:00:43.644Z,81.98
2022-11-14T06:01:39.270Z,81.84
2022-11-14T06:02:39.624Z,81.63
2022-11-14T06:03:39.196Z,81.53
2022-11-14T06:04:39.325Z,81.43
2022-11-14T06:05:39.890Z,81.23
2022-11-14T06:06:40.410Z,81.12
2022-11-14T06:07:53.832Z,80.98
2022-11-14T06:08:46.062Z,80.78
2022-11-14T06:10:00.420Z,80.68
2022-11-14T06:10:58.970Z,80.58
2022-11-14T06:11:52.150Z,80.37
2022-11-14T06:12:48.973Z,80.27
2022-11-14T06:17:35.397Z,79.93
2022-11-14T06:18:37.972Z,80.03
2022-11-14T06:19:39.425Z,79.93
2022-11-14T06:20:45.422Z,80.06
2022-11-14T06:22:07.834Z,78.64
2022-11-14T06:22:39.897Z,77.45
2022-11-14T06:23:40.413Z,77.38
2022-11-14T06:24:41.689Z,77.69
2022-11-14T06:26:22.262Z,77.79
2022-11-14T06:32:57.644Z,66.19
2022-11-14T06:33:38.271Z,64.72
2022-11-14T06:35:12.854Z,63.48
2022-11-14T06:37:35.507Z,61.41
2022-11-14T06:38:33.466Z,61.18
2022-11-14T06:39:42.355Z,60.45
2022-11-14T06:44:16.044Z,57.43
2022-11-14T06:45:05.739Z,56.80
2022-11-14T06:46:32.980Z,56.17
2022-11-14T06:47:10.350Z,55.94
2022-11-14T06:48:05.375Z,55.44
2022-11-14T06:49:05.432Z,54.92
2022-11-14T06:50:05.960Z,54.29
2022-11-14T06:51:07.015Z,53.67
2022-11-14T06:52:16.861Z,53.37
2022-11-14T06:53:09.011Z,52.97
2022-11-14T06:54:08.909Z,52.94
2022-11-14T06:55:09.559Z,52.19
2022-11-14T06:56:10.374Z,51.79
2022-11-14T06:57:11.692Z,51.59
2022-11-14T06:58:34.577Z,51.37
2022-11-14T06:59:12.686Z,50.95
2022-11-14T07:00:21.377Z,50.32
2022-11-14T07:01:14.152Z,49.58
2022-11-14T07:02:20.478Z,49.08
2022-11-14T07:07:31.555Z,53.54
2022-11-14T07:08:18.514Z,54.74
2022-11-14T07:09:13.585Z,53.42
2022-11-14T07:10:25.324Z,55.59
2022-11-14T07:11:16.349Z,57.02
2022-11-14T07:12:14.486Z,56.95
2022-11-14T07:13:15.069Z,57.75
2022-11-14T07:14:15.714Z,55.24
2022-11-14T07:15:17.152Z,54.02
2022-11-14T07:16:17.701Z,54.54
2022-11-14T07:17:18.188Z,54.11
2022-11-14T07:18:19.673Z,55.27
2022-11-14T07:19:20.326Z,55.34
2022-11-14T07:20:20.414Z,52.81
2022-11-14T07:21:21.006Z,50.35
2022-11-14T07:22:21.586Z,48.66
2022-11-14T07:23:23.088Z,47.31
2022-11-14T07:24:22.925Z,45.85
2022-11-14T07:25:23.440Z,44.82
2022-11-14T07:26:23.949Z,43.91
2022-11-14T07:27:24.458Z,43.19
2022-11-14T07:28:24.978Z,43.10
2022-11-14T07:29:25.520Z,42.68
2022-11-14T07:30:26.176Z,42.58
2022-11-14T07:31:26.702Z,42.66
2022-11-14T07:32:27.366Z,42.88
2022-11-14T07:33:27.911Z,42.76
2022-11-14T07:34:28.450Z,42.85
2022-11-14T07:35:29.005Z,42.96
2022-11-14T07:36:29.520Z,42.85
2022-11-14T07:37:30.029Z,42.97
2022-11-14T07:38:41.104Z,43.27
2022-11-14T07:39:32.845Z,43.66
2022-11-14T07:40:32.360Z,44.52
2022-11-14T07:41:32.872Z,44.52
2022-11-14T07:42:33.405Z,44.32
2022-11-14T07:43:33.996Z,44.20
2022-11-14T07:44:34.626Z,44.40
2022-11-14T07:45:35.152Z,44.52
2022-11-14T07:46:35.668Z,46.07
2022-11-14T07:47:36.192Z,47.92
2022-11-14T07:48:47.914Z,49.29
2022-11-14T07:49:44.250Z,51.22
2022-11-14T07:50:38.634Z,52.17
2022-11-14T07:51:39.495Z,52.76
2022-11-14T07:52:43.817Z,52.74
2022-11-14T07:53:41.064Z,52.32
2022-11-14T07:54:41.635Z,51.60
2022-11-14T07:55:42.552Z,52.00
2022-11-14T07:56:45.615Z,52.19
2022-11-14T07:57:49.234Z,52.07
2022-11-14T07:58:44.635Z,52.07
2022-11-14T07:59:46.400Z,52.17
2022-11-14T08:00:57.768Z,53.16
2022-11-14T08:01:47.547Z,53.16
2022-11-14T08:02:48.289Z,53.26
2022-11-14T08:03:50.002Z,53.98
2022-11-14T08:04:51.199Z,55.03
2022-11-14T08:05:50.231Z,54.83
2022-11-14T08:06:51.145Z,54.56
2022-11-14T08:07:51.768Z,56.10
2022-11-14T08:08:52.335Z,57.35
2022-11-14T08:09:52.887Z,58.38
2022-11-14T08:10:52.460Z,57.93
2022-11-14T08:11:53.988Z,57.40
2022-11-14T08:13:10.626Z,57.20
2022-11-14T08:13:55.357Z,55.48
2022-11-14T08:14:55.900Z,53.31
2022-11-14T08:16:14.310Z,53.81
2022-11-14T08:17:05.432Z,53.47
2022-11-14T08:17:58.215Z,53.54
2022-11-14T08:18:58.521Z,53.34
2022-11-14T08:19:59.112Z,52.92
2022-11-14T08:20:59.625Z,52.51
2022-11-14T08:22:00.146Z,52.39
2022-11-14T08:23:00.658Z,52.19
2022-11-14T08:24:01.622Z,51.89
2022-11-14T08:25:04.137Z,52.00
2022-11-14T08:26:03.001Z,52.69
2022-11-14T08:27:03.562Z,53.39
2022-11-14T08:28:04.075Z,54.91
2022-11-14T08:29:04.587Z,54.51
2022-11-14T08:30:05.175Z,53.59
2022-11-14T08:31:05.760Z,52.97
2022-11-14T08:32:06.279Z,54.08
2022-11-14T08:33:06.788Z,53.66
2022-11-14T08:34:07.303Z,53.96
2022-11-14T08:35:07.856Z,53.74
2022-11-14T08:36:08.428Z,52.54
2022-11-14T08:37:09.033Z,52.54
2022-11-14T08:38:09.559Z,51.20
2022-11-14T08:39:10.099Z,51.00
2022-11-14T08:40:10.644Z,50.58
2022-11-14T08:41:11.161Z,49.86
2022-11-14T08:42:11.707Z,50.18
2022-11-14T08:43:12.215Z,51.52
2022-11-14T08:44:12.738Z,50.48
2022-11-14T08:45:13.302Z,49.93
2022-11-14T08:46:14.976Z,49.41
2022-11-14T08:47:14.955Z,48.30
2022-11-14T08:48:15.150Z,47.98
2022-11-14T08:49:15.696Z,47.04
2022-11-14T08:50:16.258Z,45.53
2022-11-14T08:51:16.782Z,45.23
2022-11-14T08:52:17.019Z,43.83
2022-11-14T08:53:18.190Z,43.80
2022-11-14T08:54:18.728Z,46.69
2022-11-14T08:55:19.281Z,48.62
2022-11-14T08:56:19.789Z,50.38
2022-11-14T08:57:20.316Z,53.53
2022-11-14T08:58:20.829Z,54.75
2022-11-14T08:59:21.393Z,54.66
2022-11-14T09:00:21.962Z,54.53
2022-11-14T09:01:22.475Z,53.14
2022-11-14T09:02:22.991Z,53.66
2022-11-14T09:03:23.572Z,55.24
2022-11-14T09:04:24.161Z,56.85
2022-11-14T09:05:24.818Z,57.10
2022-11-14T09:06:25.327Z,54.81
2022-11-14T09:07:25.948Z,56.06
2022-11-14T09:08:26.553Z,54.88
2022-11-14T09:09:27.168Z,49.76
2022-11-14T09:10:28.616Z,49.07
2022-11-14T09:11:28.669Z,50.78
2022-11-14T09:12:29.430Z,47.86
2022-11-14T09:13:31.671Z,44.90
2022-11-14T09:14:49.739Z,42.66
2022-11-14T09:15:31.332Z,41.73
2022-11-14T09:16:31.844Z,40.53
2022-11-14T09:17:32.354Z,40.31
2022-11-14T09:18:33.244Z,39.40
2022-11-14T09:19:33.458Z,38.36
2022-11-14T09:20:38.800Z,37.55
2022-11-14T09:21:34.906Z,36.74
2022-11-14T09:22:35.409Z,36.65
2022-11-14T09:23:35.928Z,37.46
2022-11-14T09:24:36.529Z,38.07
2022-11-14T09:25:37.108Z,37.67
2022-11-14T09:26:37.619Z,40.53
2022-11-14T09:27:40.390Z,41.75
2022-11-14T09:28:38.928Z,43.84
2022-11-14T09:29:39.433Z,42.24
2022-11-14T09:30:43.045Z,42.88
2022-11-14T09:31:40.538Z,45.43
2022-11-14T09:32:41.045Z,47.31
2022-11-14T09:33:41.616Z,49.34
2022-11-14T09:34:42.130Z,50.88
2022-11-14T09:35:44.525Z,51.62
2022-11-14T09:36:43.702Z,52.37
2022-11-14T09:37:44.262Z,50.58
2022-11-14T09:38:44.774Z,52.14
2022-11-14T09:39:45.322Z,53.19
2022-11-14T09:40:45.867Z,50.75
2022-11-14T09:41:46.380Z,46.30
2022-11-14T09:42:46.891Z,42.93
2022-11-14T09:43:47.420Z,42.56
2022-11-14T09:45:08.478Z,41.73
2022-11-14T09:45:48.884Z,40.41
2022-11-14T09:46:49.409Z,39.68
2022-11-14T09:47:49.947Z,41.12
2022-11-14T09:48:54.288Z,40.69
2022-11-14T09:49:51.297Z,38.87
2022-11-14T09:50:51.840Z,38.03
2022-11-14T09:51:52.348Z,36.44
2022-11-14T09:52:52.869Z,36.22
2022-11-14T09:53:53.536Z,35.02
2022-11-14T09:54:54.165Z,35.11
2022-11-14T09:55:55.557Z,34.31
2022-11-14T09:56:55.602Z,33.82
2022-11-14T09:58:24.717Z,34.01
2022-11-14T09:58:57.064Z,33.53
2022-11-14T09:59:58.060Z,33.51
2022-11-14T10:00:58.188Z,33.41
2022-11-14T10:01:58.988Z,33.20
2022-11-14T10:02:59.568Z,33.18
2022-11-14T10:04:00.095Z,32.56
2022-11-14T10:05:00.607Z,32.26
2022-11-14T10:06:01.150Z,31.56
2022-11-14T10:07:01.671Z,31.64
2022-11-14T10:08:02.256Z,31.43
2022-11-14T10:09:02.777Z,31.33
2022-11-14T10:10:03.316Z,31.13
2022-11-14T10:11:09.614Z,30.83
2022-11-14T10:12:10.214Z,30.32
2022-11-14T10:13:06.178Z,30.41
2022-11-14T10:14:06.210Z,30.10
2022-11-14T10:15:06.733Z,30.41
2022-11-14T10:16:09.256Z,29.91
2022-11-14T10:17:10.683Z,29.50
2022-11-14T10:18:08.953Z,31.04
2022-11-14T10:19:10.907Z,32.14
2022-11-14T10:20:10.028Z,32.03
2022-11-14T10:21:10.670Z,31.84
2022-11-14T10:22:11.182Z,31.54
2022-11-14T10:23:11.724Z,31.23
2022-11-14T10:24:12.235Z,30.74
2022-11-14T10:25:12.786Z,30.74
2022-11-14T10:26:13.880Z,30.15
2022-11-14T10:27:16.628Z,30.05
2022-11-14T10:28:14.670Z,30.44
2022-11-14T10:29:19.972Z,30.96
2022-11-14T10:30:16.135Z,31.57
2022-11-14T10:31:16.685Z,31.88
2022-11-14T10:32:17.194Z,31.96
2022-11-14T10:33:17.715Z,31.96
2022-11-14T10:34:18.249Z,31.68
2022-11-14T10:35:18.756Z,30.77
2022-11-14T10:36:19.781Z,30.58
2022-11-14T10:37:22.978Z,31.48
2022-11-14T10:38:20.492Z,31.88
2022-11-14T10:39:21.274Z,33.22
2022-11-14T10:40:22.668Z,35.75
2022-11-14T10:41:55.511Z,34.51
2022-11-14T10:42:23.273Z,33.59
2022-11-14T10:43:24.845Z,32.58
2022-11-14T10:44:25.323Z,32.68
2022-11-14T10:45:25.373Z,32.76
2022-11-14T10:46:25.903Z,32.87
2022-11-14T10:47:26.459Z,34.01
2022-11-14T10:48:27.171Z,33.80
2022-11-14T10:49:27.819Z,33.18
2022-11-14T10:50:28.335Z,33.72
2022-11-14T10:51:28.873Z,35.34
2022-11-14T10:52:29.381Z,36.83
2022-11-14T10:53:29.892Z,35.42
2022-11-14T10:54:30.403Z,37.28
2022-11-14T10:56:02.649Z,39.32
2022-11-14T10:56:31.822Z,40.15
2022-11-14T10:57:32.378Z,39.58
2022-11-14T10:58:46.704Z,37.05
2022-11-14T10:59:33.877Z,36.01
2022-11-14T11:00:34.407Z,34.39
2022-11-14T11:01:35.122Z,33.17
2022-11-14T11:02:36.495Z,31.87
2022-11-14T11:03:37.314Z,31.05
2022-11-14T11:04:37.381Z,30.84
2022-11-14T11:05:37.890Z,30.45
2022-11-14T11:06:38.415Z,30.65
2022-11-14T11:07:38.923Z,32.90
2022-11-14T11:08:44.188Z,35.97
2022-11-14T11:09:45.048Z,38.62
2022-11-14T11:10:41.246Z,40.35
2022-11-14T11:11:41.905Z,41.49
2022-11-14T11:12:42.590Z,43.02
2022-11-14T11:13:43.139Z,44.27
2022-11-14T11:14:45.208Z,45.38
2022-11-14T11:15:45.269Z,46.42
2022-11-14T11:16:45.149Z,47.63
2022-11-14T11:17:45.653Z,48.66
2022-11-14T11:18:50.663Z,49.58
2022-11-14T11:19:46.871Z,50.20
2022-11-14T11:20:47.378Z,51.54
2022-11-14T11:21:48.058Z,52.37
2022-11-14T11:22:48.590Z,53.19
2022-11-14T11:23:49.090Z,53.52
2022-11-14T11:24:50.176Z,54.14
2022-11-14T11:25:50.244Z,54.53
2022-11-14T11:26:50.861Z,54.53
2022-11-14T11:27:51.364Z,54.96
2022-11-14T11:28:57.913Z,54.96
2022-11-14T11:29:52.394Z,51.07
2022-11-14T11:30:54.476Z,47.09
2022-11-14T11:31:53.993Z,43.88
2022-11-14T11:32:54.222Z,41.95
2022-11-14T11:34:12.925Z,40.90
2022-11-14T11:34:55.427Z,38.89
2022-11-14T11:35:55.923Z,38.30
2022-11-14T11:36:56.455Z,38.71
2022-11-14T11:37:56.945Z,40.96
2022-11-14T11:38:57.453Z,39.92
2022-11-14T11:39:57.960Z,38.99
2022-11-14T11:40:58.486Z,38.07
2022-11-14T11:42:14.275Z,37.54
2022-11-14T11:43:37.370Z,35.93
2022-11-14T11:44:01.855Z,35.52
2022-11-14T11:45:01.641Z,34.61
2022-11-14T11:46:02.158Z,34.10
2022-11-14T11:47:02.702Z,33.39
2022-11-14T11:48:03.214Z,33.09
2022-11-14T11:49:03.728Z,32.70
2022-11-14T11:50:04.232Z,32.50
2022-11-14T11:51:04.743Z,32.20
2022-11-14T11:52:05.274Z,32.30
2022-11-14T11:53:05.977Z,32.01
2022-11-14T11:54:06.504Z,32.20
2022-11-14T11:55:07.797Z,32.19
2022-11-14T11:56:07.866Z,32.37
2022-11-14T11:57:08.404Z,31.67
2022-11-14T11:58:08.920Z,31.36
2022-11-14T11:59:09.428Z,30.57
2022-11-14T12:00:09.943Z,31.18
2022-11-14T12:01:10.452Z,31.08
2022-11-14T12:02:12.989Z,31.28
2022-11-14T12:03:12.063Z,31.49
2022-11-14T12:04:12.865Z,32.48
2022-11-14T12:05:13.419Z,32.48
2022-11-14T12:06:13.915Z,33.17
2022-11-14T12:07:14.606Z,33.38
2022-11-14T12:08:21.072Z,32.99
2022-11-14T12:09:16.150Z,34.66
2022-11-14T12:10:16.772Z,36.92
2022-11-14T12:11:17.304Z,38.67
2022-11-14T12:12:17.857Z,40.41
2022-11-14T12:13:18.366Z,41.33
2022-11-14T12:14:18.874Z,42.03
2022-11-14T12:15:19.380Z,40.23
2022-11-14T12:16:19.899Z,37.79
2022-11-14T12:17:20.435Z,36.26
2022-11-14T12:18:20.938Z,35.54
2022-11-14T12:19:21.441Z,35.11
2022-11-14T12:20:21.945Z,34.23
2022-11-14T12:21:22.450Z,34.72
2022-11-14T12:22:23.033Z,34.62
2022-11-14T12:23:23.534Z,34.72
2022-11-14T12:24:24.037Z,35.64
2022-11-14T12:25:24.547Z,35.83
2022-11-14T12:26:25.229Z,36.74
2022-11-14T12:27:25.879Z,36.42
2022-11-14T12:30:15.321Z,37.92
2022-11-14T12:31:16.847Z,37.40
2022-11-14T12:32:17.364Z,38.03
2022-11-14T12:33:17.900Z,39.17
2022-11-14T12:34:18.447Z,41.83
2022-11-14T12:35:19.081Z,44.20
2022-11-14T12:36:19.667Z,45.87
2022-11-14T12:37:20.229Z,47.92
2022-11-14T12:38:20.784Z,49.46
2022-11-14T12:39:21.282Z,50.80
2022-11-14T12:40:25.763Z,51.92
2022-11-14T12:41:22.757Z,52.67
2022-11-14T12:42:23.284Z,53.19
2022-11-14T12:43:23.807Z,53.02
2022-11-14T12:44:26.703Z,52.89
2022-11-14T12:45:24.986Z,53.89
2022-11-14T12:46:25.495Z,53.19
2022-11-14T12:47:26.004Z,49.88
2022-11-14T12:48:26.548Z,47.31
2022-11-14T12:49:31.447Z,45.65
2022-11-14T12:50:27.941Z,44.42
2022-11-14T12:51:28.583Z,44.24
2022-11-14T12:52:29.120Z,44.64
2022-11-14T12:53:30.107Z,44.20
2022-11-14T12:54:30.271Z,44.86
2022-11-14T12:55:31.301Z,46.39
2022-11-14T12:56:31.310Z,47.43
2022-11-14T12:57:32.082Z,49.07
2022-11-14T12:58:32.618Z,49.91
2022-11-14T12:59:33.127Z,49.33
2022-11-14T13:00:33.636Z,50.15
2022-11-14T13:01:34.256Z,50.13
2022-11-14T13:02:34.792Z,47.33
2022-11-14T13:03:35.335Z,46.19
2022-11-14T13:04:35.840Z,43.87
2022-11-14T13:05:36.341Z,45.92
2022-11-14T13:06:36.854Z,46.22
2022-11-14T13:07:37.440Z,46.00
2022-11-14T13:08:38.057Z,45.16
2022-11-14T13:09:38.551Z,44.35
2022-11-14T13:10:39.052Z,43.95
2022-11-14T13:11:39.562Z,44.64
2022-11-14T13:12:40.161Z,44.76
2022-11-14T13:13:40.692Z,46.51
2022-11-14T13:14:41.198Z,47.23
2022-11-14T13:15:47.402Z,46.12
2022-11-14T13:16:42.554Z,46.24
2022-11-14T13:17:43.066Z,47.01
2022-11-14T13:18:43.665Z,45.87
2022-11-14T13:19:44.174Z,45.06
2022-11-14T13:20:44.671Z,45.50